»·PEaware :: N732SG KSBD-KEMT

N732SG :: KSBD-KEMT

FLIGHT INFORMATION

Flight Status: Arrived
Operator: Privately registered:
United States
More flights under this callsign
Pilot: Scott G. (88)
Aircraft: CESSNA 172 SKYHAWK
(C172)
More flights by this aircraft type
Origin: KSBD San Bernardino Intl
United States
Destination: KEMT El Monte
United States
More flights between these airports :: More routes between these airports
Route: +
File this flight plan on PilotEdge
Remarks:
Altitude:
(Current/Filed)
3,500ft
Speed:
(Current/Filed)
120kts
Departed: 30-Jan-17 12:46 PM
Arrived: 30-Jan-17 01:14 PM
Distance/Time
Traveled:
3066nm/0:28
Distance/Time
To Go:
Arrived

Flight Plot

Page will automatically refresh every two minutes.


Map Options




Map Legend


Flown Route
Filed Route
Departure Airport
Arrival Airport
Navaid (VOR, NDB)
Fix

Horizontal Profiles

Position Reports

Time Latitude Longitude Heading Altitude Ground
Speed
30-Jan-17 12:15 34.104759 -117.247121 133 1095ft 0kts
30-Jan-17 12:16 34.104759 -117.247121 133 1095ft 0kts
30-Jan-17 12:17 34.104759 -117.247121 133 1095ft 0kts
30-Jan-17 12:18 34.104759 -117.247121 133 1095ft 0kts
30-Jan-17 12:19 34.104759 -117.247121 133 1095ft 0kts
30-Jan-17 12:20 34.104759 -117.247121 133 1095ft 0kts
30-Jan-17 12:21 34.104759 -117.247121 133 1095ft 0kts
30-Jan-17 12:22 34.104759 -117.247121 133 1095ft 0kts
30-Jan-17 12:23 34.104759 -117.247121 133 1095ft 0kts
30-Jan-17 12:24 34.104759 -117.247121 133 1095ft 0kts
30-Jan-17 12:25 34.104759 -117.247121 133 1095ft 0kts
30-Jan-17 12:26 34.104759 -117.247121 133 1095ft 0kts
30-Jan-17 12:27 34.104647 -117.246846 113 1096ft 6kts
30-Jan-17 12:28 34.103105 -117.242565 106 1104ft 0kts
30-Jan-17 12:29 34.103105 -117.242565 106 1104ft 0kts
30-Jan-17 12:30 34.103105 -117.242565 106 1104ft 0kts
30-Jan-17 12:31 34.103105 -117.242565 106 1104ft 0kts
30-Jan-17 12:32 34.103105 -117.242565 106 1104ft 0kts
30-Jan-17 12:33 34.103105 -117.242565 106 1104ft 0kts
30-Jan-17 12:34 34.103105 -117.242565 106 1104ft 0kts
30-Jan-17 12:35 34.103105 -117.242565 106 1104ft 0kts
30-Jan-17 12:36 34.103105 -117.242565 106 1104ft 0kts
30-Jan-17 12:37 34.103105 -117.242565 106 1104ft 0kts
30-Jan-17 12:38 34.102968 -117.242058 107 1105ft 10kts
30-Jan-17 12:39 34.099026 -117.238293 149 1110ft 24kts
30-Jan-17 12:40 34.095556 -117.240589 251 1102ft 21kts
30-Jan-17 12:41 34.093529 -117.247432 250 1088ft 22kts
30-Jan-17 12:42 34.091603 -117.250730 156 1082ft 0kts
30-Jan-17 12:43 34.091603 -117.250730 156 1082ft 0kts
30-Jan-17 12:44 34.091603 -117.250730 156 1082ft 0kts
30-Jan-17 12:45 34.090882 -117.250365 145 1081ft 9kts
30-Jan-17 12:46 34.096176 -117.231607 73 1611ft 83kts
30-Jan-17 12:47 34.104514 -117.207527 10 2506ft 88kts
30-Jan-17 12:48 34.132477 -117.204874 0 2549ft 98kts
30-Jan-17 12:49 34.144734 -117.229262 272 2487ft 110kts
30-Jan-17 12:50 34.146426 -117.265886 273 2485ft 109kts
30-Jan-17 12:51 34.142871 -117.302216 251 2459ft 111kts
30-Jan-17 12:52 34.131087 -117.336699 242 2421ft 111kts
30-Jan-17 12:53 34.113245 -117.366908 224 2412ft 110kts
30-Jan-17 12:54 34.090863 -117.390595 223 2576ft 107kts
30-Jan-17 12:55 34.081731 -117.422838 264 2708ft 102kts
30-Jan-17 12:56 34.079825 -117.457374 268 2713ft 104kts
30-Jan-17 12:57 34.079541 -117.492840 271 2712ft 106kts
30-Jan-17 12:58 34.079783 -117.528401 264 2709ft 106kts
30-Jan-17 12:59 34.070836 -117.562474 252 2708ft 106kts
30-Jan-17 13:00 34.068020 -117.597233 274 2707ft 106kts
30-Jan-17 13:01 34.069482 -117.632479 273 2690ft 106kts
30-Jan-17 13:02 34.070881 -117.666895 272 2692ft 106kts
30-Jan-17 13:03 34.072319 -117.702299 272 2695ft 106kts
30-Jan-17 13:04 34.073841 -117.737222 273 2408ft 102kts
30-Jan-17 13:05 34.075450 -117.770029 273 1990ft 99kts
30-Jan-17 13:06 34.077088 -117.804184 269 2450ft 78kts
30-Jan-17 13:07 34.078201 -117.837851 273 2690ft 124kts
30-Jan-17 13:08 34.080087 -117.876762 273 2429ft 111kts
30-Jan-17 13:09 34.081938 -117.913500 273 1810ft 108kts
30-Jan-17 13:10 34.083294 -117.947636 260 1329ft 96kts
30-Jan-17 13:11 34.082492 -117.977715 269 1230ft 85kts
30-Jan-17 13:12 34.084178 -118.004582 305 1051ft 71kts
30-Jan-17 13:13 34.093337 -118.021198 299 549ft 66kts
30-Jan-17 13:14 34.086741 -118.034443 206 287ft 27kts
30-Jan-17 13:15 34.085392 -118.034645 112 287ft 0kts
30-Jan-17 13:16 34.083184 -118.035593 116 285ft 7kts
30-Jan-17 13:17 34.082707 -118.035642 195 285ft 0kts
30-Jan-17 13:18 34.082707 -118.035642 196 285ft 0kts
30-Jan-17 13:19 28.197531 -177.392720 68 8ft 0kts
30-Jan-17 13:20 28.197531 -177.392720 68 8ft 0kts

Navigation Log

Ident Type
Flight plan parsing failed, navigation log unavailable